createdAt,value
2022-10-02T00:00:41.608Z,61.47
2022-10-02T00:03:25.684Z,53.00
2022-10-02T00:05:57.769Z,59.72
2022-10-02T00:08:27.142Z,53.38
2022-10-02T00:10:55.824Z,52.03
2022-10-02T00:13:27.534Z,48.88
2022-10-02T00:15:54.733Z,49.50
2022-10-02T00:18:29.226Z,48.80
2022-10-02T00:21:05.076Z,47.83
2022-10-02T00:23:39.734Z,45.67
2022-10-02T00:26:14.107Z,44.65
2022-10-02T00:28:46.425Z,45.00
2022-10-02T00:31:15.926Z,41.40
2022-10-02T00:33:42.434Z,42.42
2022-10-02T00:36:08.829Z,41.70
2022-10-02T00:38:41.075Z,38.67
2022-10-02T00:41:10.286Z,41.25
2022-10-02T00:43:44.574Z,40.97
2022-10-02T00:46:26.387Z,43.40
2022-10-02T00:49:18.565Z,43.28
2022-10-02T00:52:08.312Z,40.92
2022-10-02T00:54:53.190Z,42.40
2022-10-02T00:57:22.232Z,40.85
2022-10-02T00:59:57.560Z,41.50
2022-10-02T01:02:24.122Z,39.58
2022-10-02T01:04:50.688Z,41.00
2022-10-02T01:07:17.233Z,42.22
2022-10-02T01:09:44.516Z,42.50
2022-10-02T01:12:11.650Z,41.47
2022-10-02T01:14:39.885Z,41.63
2022-10-02T01:17:07.437Z,39.78
2022-10-02T01:19:41.461Z,40.22
2022-10-02T01:22:23.063Z,42.15
2022-10-02T01:24:53.452Z,41.28
2022-10-02T01:27:19.953Z,42.70
2022-10-02T01:29:47.807Z,42.42
2022-10-02T01:32:14.371Z,42.45
2022-10-02T01:34:41.384Z,40.20
2022-10-02T01:37:08.634Z,43.53
2022-10-02T01:39:35.303Z,42.97
2022-10-02T01:42:01.799Z,44.83
2022-10-02T01:44:28.537Z,42.97
2022-10-02T01:47:04.489Z,41.15
2022-10-02T01:49:55.648Z,45.40
2022-10-02T01:52:24.967Z,44.50
2022-10-02T01:54:51.617Z,43.67
2022-10-02T01:57:30.236Z,45.53
2022-10-02T02:00:11.294Z,47.55
2022-10-02T02:02:43.162Z,44.72
2022-10-02T02:05:17.948Z,45.25
2022-10-02T02:07:47.257Z,44.40
2022-10-02T02:10:18.434Z,48.50
2022-10-02T02:12:57.064Z,47.10
2022-10-02T02:15:26.332Z,46.53
2022-10-02T02:17:56.827Z,46.30
2022-10-02T02:20:28.238Z,49.08
2022-10-02T02:22:55.965Z,46.97
2022-10-02T02:25:25.228Z,44.30
2022-10-02T02:28:03.403Z,46.40
2022-10-02T02:30:31.764Z,42.97
2022-10-02T02:33:02.002Z,46.15
2022-10-02T02:35:34.228Z,44.08
2022-10-02T02:38:04.216Z,43.25
2022-10-02T02:40:31.269Z,44.60
2022-10-02T02:43:05.137Z,44.22
2022-10-02T02:45:41.456Z,45.42
2022-10-02T02:48:10.420Z,44.08
2022-10-02T02:51:03.363Z,41.40
2022-10-02T02:53:31.923Z,44.45
2022-10-02T02:55:59.753Z,41.47
2022-10-02T02:58:26.151Z,43.45
2022-10-02T03:00:52.749Z,42.47
2022-10-02T03:03:19.191Z,41.00
2022-10-02T03:05:48.558Z,44.88
2022-10-02T03:08:18.733Z,45.63
2022-10-02T03:10:52.590Z,41.58
2022-10-02T03:13:26.734Z,43.78
2022-10-02T03:16:03.070Z,45.65
2022-10-02T03:18:32.333Z,42.63
2022-10-02T03:21:11.082Z,45.42
2022-10-02T03:24:00.771Z,42.65
2022-10-02T03:26:35.274Z,42.28
2022-10-02T03:29:03.310Z,43.53
2022-10-02T03:31:31.082Z,45.38
2022-10-02T03:33:58.917Z,45.83
2022-10-02T03:36:25.577Z,44.97
2022-10-02T03:39:12.937Z,44.72
2022-10-02T03:41:40.829Z,46.63
2022-10-02T03:44:07.232Z,45.90
2022-10-02T03:46:34.168Z,44.10
2022-10-02T03:49:01.004Z,45.40
2022-10-02T03:51:27.449Z,46.38
2022-10-02T03:53:54.034Z,45.25
2022-10-02T03:56:35.729Z,44.08
2022-10-02T03:59:05.339Z,44.05
2022-10-02T04:01:39.780Z,44.08
2022-10-02T04:04:10.294Z,46.05
2022-10-02T04:06:42.551Z,45.38
2022-10-02T04:09:18.726Z,46.85
2022-10-02T04:11:48.204Z,49.33
2022-10-02T04:14:24.120Z,46.95
2022-10-02T04:16:58.420Z,47.10
2022-10-02T04:19:34.166Z,46.33
2022-10-02T04:22:08.442Z,49.72
2022-10-02T04:24:34.910Z,47.03
2022-10-02T04:27:22.410Z,48.17
2022-10-02T04:29:55.070Z,49.47
2022-10-02T04:32:26.370Z,48.47
2022-10-02T04:34:53.059Z,49.78
2022-10-02T04:37:34.478Z,48.28
2022-10-02T04:40:13.767Z,48.92
2022-10-02T04:42:48.264Z,48.00
2022-10-02T04:45:21.048Z,46.17
2022-10-02T04:47:56.615Z,47.15
2022-10-02T04:50:23.010Z,48.30
2022-10-02T04:52:54.471Z,45.75
2022-10-02T04:55:23.685Z,49.10
2022-10-02T04:57:53.153Z,48.50
2022-10-02T05:00:20.663Z,47.17
2022-10-02T05:03:05.251Z,47.25
2022-10-02T05:05:50.222Z,47.83
2022-10-02T05:08:19.746Z,45.33
2022-10-02T05:10:49.049Z,45.63
2022-10-02T05:13:27.330Z,47.00
2022-10-02T05:16:12.451Z,50.00
2022-10-02T05:18:38.877Z,45.03
2022-10-02T05:21:24.965Z,41.55
2022-10-02T05:23:54.191Z,49.22
2022-10-02T05:26:28.340Z,45.67
2022-10-02T05:29:06.929Z,47.17
2022-10-02T05:31:51.981Z,48.50
2022-10-02T05:34:31.227Z,50.03
2022-10-02T05:37:06.741Z,49.55
2022-10-02T05:39:38.825Z,46.60
2022-10-02T05:42:05.263Z,49.70
2022-10-02T05:44:37.589Z,47.90
2022-10-02T05:47:10.009Z,46.97
2022-10-02T05:49:43.720Z,50.65
2022-10-02T05:52:17.963Z,47.65
2022-10-02T05:55:00.164Z,48.33
2022-10-02T05:57:32.535Z,45.20
2022-10-02T06:00:02.100Z,45.80
2022-10-02T06:02:50.035Z,47.40
2022-10-02T06:05:35.455Z,43.30
2022-10-02T06:08:03.930Z,44.00
2022-10-02T06:10:41.463Z,42.85
2022-10-02T06:13:13.761Z,39.25
2022-10-02T06:15:45.156Z,44.47
2022-10-02T06:18:31.870Z,43.38
2022-10-02T06:21:04.553Z,43.35
2022-10-02T06:23:34.161Z,42.63
2022-10-02T06:26:06.865Z,41.03
2022-10-02T06:28:54.223Z,38.33
2022-10-02T06:31:29.725Z,37.70
2022-10-02T06:33:56.748Z,38.63
2022-10-02T06:36:25.912Z,37.63
2022-10-02T06:38:55.292Z,36.72
2022-10-02T06:41:41.872Z,36.78
2022-10-02T06:44:14.887Z,34.67
2022-10-02T06:46:41.341Z,38.60
2022-10-02T06:49:13.913Z,47.45
2022-10-02T06:51:40.363Z,53.83
2022-10-02T06:54:19.400Z,55.47
2022-10-02T06:57:06.166Z,67.43
2022-10-02T06:59:54.893Z,56.25
2022-10-02T07:02:30.196Z,64.88
2022-10-02T07:04:56.647Z,48.75
2022-10-02T07:07:41.670Z,48.13
2022-10-02T07:10:28.731Z,45.88
2022-10-02T07:12:55.178Z,44.72
2022-10-02T07:15:35.687Z,47.60
2022-10-02T07:18:05.178Z,35.72
2022-10-02T07:20:34.140Z,37.60
2022-10-02T07:23:19.646Z,39.03
2022-10-02T07:25:51.953Z,41.53
2022-10-02T07:28:21.394Z,40.67
2022-10-02T07:31:08.230Z,42.80
2022-10-02T07:34:01.235Z,39.83
2022-10-02T07:36:39.881Z,38.33
2022-10-02T07:39:21.522Z,43.45
2022-10-02T07:42:06.326Z,38.53
2022-10-02T07:44:44.996Z,37.20
2022-10-02T07:47:22.094Z,37.30
2022-10-02T07:49:54.374Z,37.67
2022-10-02T07:52:29.315Z,34.67
2022-10-02T07:55:01.922Z,34.83
2022-10-02T07:57:31.270Z,36.87
2022-10-02T08:00:01.762Z,35.45
2022-10-02T08:02:56.839Z,37.90
2022-10-02T08:05:40.533Z,32.92
2022-10-02T08:08:12.133Z,27.80
2022-10-02T08:10:41.311Z,35.42
2022-10-02T08:13:15.709Z,33.80
2022-10-02T08:15:44.231Z,32.55
2022-10-02T08:18:34.658Z,29.63
2022-10-02T08:21:02.861Z,31.38
2022-10-02T08:23:33.925Z,28.58
2022-10-02T08:26:06.578Z,43.60
2022-10-02T08:28:49.283Z,25.23
2022-10-02T08:31:16.240Z,31.02
2022-10-02T08:33:43.292Z,24.30
2022-10-02T08:36:21.402Z,20.50
2022-10-02T08:38:54.592Z,21.52
2022-10-02T08:43:47.803Z,22.13
2022-10-02T08:46:14.403Z,17.83
2022-10-02T08:48:55.284Z,18.70
2022-10-02T08:51:40.364Z,16.70
2022-10-02T08:54:32.869Z,16.60
2022-10-02T08:57:18.129Z,16.20
2022-10-02T09:00:06.511Z,15.63
2022-10-02T09:02:57.905Z,14.43
2022-10-02T09:05:42.513Z,13.43
2022-10-02T09:08:30.175Z,14.05
2022-10-02T09:10:59.435Z,12.70
2022-10-02T09:13:46.050Z,10.85
2022-10-02T09:16:17.818Z,11.60
2022-10-02T09:18:47.365Z,11.05
2022-10-02T09:21:18.073Z,11.15
2022-10-02T09:23:50.509Z,10.18
2022-10-02T09:26:33.208Z,9.45
2022-10-02T09:29:12.003Z,9.70
2022-10-02T09:31:53.956Z,7.38
2022-10-02T09:34:26.354Z,7.78
2022-10-02T09:37:13.000Z,10.52
2022-10-02T09:39:39.466Z,8.15
2022-10-02T09:42:24.833Z,7.32
2022-10-02T09:45:00.955Z,7.82
2022-10-02T09:47:28.084Z,8.65
2022-10-02T09:49:54.512Z,10.55
2022-10-02T09:52:33.293Z,9.63
2022-10-02T09:55:20.953Z,9.77
2022-10-02T09:57:47.359Z,8.18
2022-10-02T10:00:51.319Z,7.53
2022-10-02T10:03:26.755Z,5.97
2022-10-02T10:06:11.380Z,8.07
2022-10-02T10:08:37.782Z,5.70
2022-10-02T10:11:19.795Z,6.55
2022-10-02T10:13:49.061Z,6.65
2022-10-02T10:16:33.715Z,6.75
2022-10-02T10:19:22.209Z,7.70
2022-10-02T10:22:07.426Z,7.57
2022-10-02T10:24:52.458Z,7.15
2022-10-02T10:27:18.883Z,6.05
2022-10-02T10:29:51.083Z,7.60
2022-10-02T10:32:17.527Z,7.68
2022-10-02T10:35:00.382Z,5.63
2022-10-02T10:37:45.626Z,6.13
2022-10-02T10:40:20.904Z,6.07
2022-10-02T10:43:08.550Z,7.25
2022-10-02T10:45:54.132Z,6.35
2022-10-02T10:48:20.958Z,7.00
2022-10-02T10:51:00.444Z,7.13
2022-10-02T10:53:45.394Z,7.65
2022-10-02T10:56:34.752Z,7.63
2022-10-02T10:59:01.158Z,6.20
2022-10-02T11:01:45.425Z,7.40
2022-10-02T11:04:39.303Z,5.60
2022-10-02T11:07:15.620Z,7.45
2022-10-02T11:09:42.186Z,6.10
2022-10-02T11:12:09.764Z,5.78
2022-10-02T11:14:51.964Z,5.40
2022-10-02T11:17:21.487Z,5.88
2022-10-02T11:20:00.111Z,8.30
2022-10-02T11:22:45.453Z,6.20
2022-10-02T11:25:18.358Z,6.18
2022-10-02T11:27:57.662Z,8.15
2022-10-02T11:30:44.458Z,6.65
2022-10-02T11:33:30.085Z,5.07
2022-10-02T11:36:17.049Z,5.60
2022-10-02T11:38:56.077Z,4.93
2022-10-02T11:41:32.106Z,5.70
2022-10-02T11:44:11.310Z,5.95
2022-10-02T11:46:55.961Z,6.57
2022-10-02T11:49:31.013Z,7.05
2022-10-02T11:51:57.500Z,7.72
2022-10-02T11:54:29.297Z,6.90
2022-10-02T11:57:14.308Z,6.18
2022-10-02T11:59:43.721Z,6.32
2022-10-02T12:02:39.102Z,4.57
2022-10-02T12:05:24.179Z,5.30
2022-10-02T12:08:01.579Z,6.65
2022-10-02T12:10:28.062Z,6.15
2022-10-02T12:13:04.543Z,10.98
2022-10-02T12:15:34.212Z,7.25
2022-10-02T12:18:06.224Z,4.47
2022-10-02T12:21:00.039Z,5.28
2022-10-02T12:24:25.103Z,10.07
2022-10-02T12:27:00.238Z,6.25
2022-10-02T12:29:32.394Z,6.82
2022-10-02T12:32:02.008Z,7.03
2022-10-02T12:34:34.235Z,6.75
2022-10-02T12:37:25.091Z,10.32
2022-10-02T12:40:10.185Z,10.50
2022-10-02T12:42:36.627Z,10.30
2022-10-02T12:45:21.621Z,5.50
2022-10-02T12:47:53.773Z,9.88
2022-10-02T12:50:27.967Z,5.85
2022-10-02T12:53:06.341Z,8.65
2022-10-02T12:55:42.451Z,9.00
2022-10-02T12:58:10.239Z,6.65
2022-10-02T13:00:45.753Z,6.78
2022-10-02T13:03:30.506Z,7.93
2022-10-02T13:06:01.905Z,8.27
2022-10-02T13:08:48.411Z,5.55
2022-10-02T13:11:18.023Z,7.18
2022-10-02T13:14:20.237Z,8.45
2022-10-02T13:16:46.818Z,6.68
2022-10-02T13:19:30.431Z,9.00
2022-10-02T13:22:14.500Z,11.02
2022-10-02T13:24:55.581Z,5.13
2022-10-02T13:27:31.345Z,5.65
2022-10-02T13:30:17.374Z,6.03
2022-10-02T13:32:54.040Z,5.10
2022-10-02T13:35:26.153Z,4.63
2022-10-02T13:37:58.567Z,7.38
2022-10-02T13:40:37.009Z,7.30
2022-10-02T13:43:19.146Z,6.18
2022-10-02T13:45:45.582Z,6.97
2022-10-02T13:48:22.356Z,7.97
2022-10-02T13:50:54.538Z,6.60
2022-10-02T13:53:46.025Z,5.72
2022-10-02T13:56:31.265Z,5.50
2022-10-02T13:59:06.530Z,5.32
2022-10-02T14:01:42.095Z,6.47
2022-10-02T14:04:19.731Z,5.43
2022-10-02T14:06:50.320Z,6.28
2022-10-02T14:09:19.534Z,6.10
2022-10-02T14:11:45.952Z,6.88
2022-10-02T14:14:28.341Z,5.43
2022-10-02T14:17:13.266Z,6.22
2022-10-02T14:19:42.675Z,5.45
2022-10-02T14:22:27.918Z,7.45
2022-10-02T14:25:00.474Z,9.93
2022-10-02T14:27:29.734Z,6.80
2022-10-02T14:30:00.024Z,6.07
2022-10-02T14:32:41.785Z,5.65
2022-10-02T14:35:23.064Z,4.65
2022-10-02T14:38:04.628Z,7.43
2022-10-02T14:40:51.312Z,5.20
2022-10-02T14:43:20.528Z,6.57
2022-10-02T14:45:58.502Z,7.60
2022-10-02T14:48:43.704Z,6.60
2022-10-02T14:51:28.853Z,6.28
2022-10-02T14:53:55.349Z,9.23
2022-10-02T14:56:30.724Z,7.35
2022-10-02T14:59:09.975Z,20.05
2022-10-02T15:01:45.222Z,9.98
2022-10-02T15:04:25.183Z,6.72
2022-10-02T15:06:57.997Z,7.35
2022-10-02T15:09:42.928Z,7.22
2022-10-02T15:12:14.040Z,6.45
2022-10-02T15:14:52.988Z,5.65
2022-10-02T15:17:41.327Z,6.55
2022-10-02T15:20:20.273Z,7.05
2022-10-02T15:22:54.185Z,7.43
2022-10-02T15:25:32.966Z,6.80
2022-10-02T15:28:18.363Z,9.00
2022-10-02T15:31:10.261Z,10.60
2022-10-02T15:33:36.963Z,8.15
2022-10-02T15:36:22.141Z,7.22
2022-10-02T15:39:03.537Z,8.13
2022-10-02T15:41:32.754Z,10.45
2022-10-02T15:44:17.685Z,11.93
2022-10-02T15:46:44.153Z,11.27
2022-10-02T15:49:19.355Z,13.13
2022-10-02T15:51:54.825Z,14.52
2022-10-02T15:54:39.265Z,13.68
2022-10-02T15:57:23.874Z,13.80
2022-10-02T15:59:59.173Z,14.20
2022-10-02T16:02:29.245Z,14.40
2022-10-02T16:05:08.494Z,13.23
2022-10-02T16:07:53.663Z,12.93
2022-10-02T16:10:23.109Z,12.07
2022-10-02T16:13:08.669Z,12.88
2022-10-02T16:15:37.872Z,13.82
2022-10-02T16:18:04.284Z,12.18
2022-10-02T16:20:49.242Z,9.98
2022-10-02T16:23:15.695Z,13.25
2022-10-02T16:25:42.251Z,16.25
2022-10-02T16:28:23.079Z,24.70
2022-10-02T16:30:49.578Z,20.45
2022-10-02T16:33:20.708Z,20.77
2022-10-02T16:35:51.365Z,22.50
2022-10-02T16:38:30.438Z,19.67
2022-10-02T16:40:57.111Z,19.83
2022-10-02T16:43:32.462Z,21.00
2022-10-02T16:46:03.424Z,21.50
2022-10-02T16:48:36.383Z,20.10
2022-10-02T16:51:15.449Z,19.45
2022-10-02T16:53:41.931Z,22.55
2022-10-02T16:56:12.165Z,22.83
2022-10-02T16:58:42.074Z,23.20
2022-10-02T17:01:59.488Z,23.15
2022-10-02T17:04:36.957Z,19.67
2022-10-02T17:07:15.199Z,23.42
2022-10-02T17:10:01.594Z,20.60
2022-10-02T17:12:34.765Z,22.67
2022-10-02T17:15:08.568Z,18.20
2022-10-02T17:17:53.784Z,20.48
2022-10-02T17:20:23.298Z,18.08
2022-10-02T17:23:07.041Z,18.95
2022-10-02T17:25:42.223Z,19.08
2022-10-02T17:28:08.663Z,19.77
2022-10-02T17:30:50.290Z,21.77
2022-10-02T17:33:21.712Z,20.17
2022-10-02T17:35:54.102Z,26.23
2022-10-02T17:38:24.126Z,25.73
2022-10-02T17:40:56.432Z,29.70
2022-10-02T17:43:31.364Z,28.20
2022-10-02T17:46:20.989Z,26.38
2022-10-02T17:49:12.811Z,23.80
2022-10-02T17:51:57.628Z,20.73
2022-10-02T17:54:58.003Z,21.70
2022-10-02T17:57:51.010Z,21.38
2022-10-02T18:00:23.895Z,21.88
2022-10-02T18:03:10.368Z,21.02
2022-10-02T18:05:55.414Z,22.70
2022-10-02T18:08:40.825Z,23.45
2022-10-02T18:11:09.734Z,22.40
2022-10-02T18:13:48.942Z,22.50
2022-10-02T18:16:22.226Z,22.92
2022-10-02T18:19:07.425Z,25.60
2022-10-02T18:24:06.704Z,25.38
2022-10-02T18:26:39.001Z,27.33
2022-10-02T18:29:05.406Z,26.77
2022-10-02T18:31:55.217Z,26.02
2022-10-02T18:34:26.672Z,26.02
2022-10-02T18:36:56.201Z,27.02
2022-10-02T18:39:49.076Z,24.73
2022-10-02T18:42:21.553Z,25.77
2022-10-02T18:45:06.374Z,28.48
2022-10-02T18:47:46.239Z,26.25
2022-10-02T18:50:18.513Z,23.90
2022-10-02T18:52:47.773Z,26.42
2022-10-02T18:55:23.060Z,24.50
2022-10-02T18:58:09.833Z,23.58
2022-10-02T19:00:54.770Z,22.58
2022-10-02T19:03:39.795Z,22.45
2022-10-02T19:06:12.502Z,22.58
2022-10-02T19:08:57.265Z,23.23
2022-10-02T19:11:28.190Z,21.02
2022-10-02T19:13:54.854Z,22.00
2022-10-02T19:16:25.229Z,22.33
2022-10-02T19:19:12.029Z,20.98
2022-10-02T19:21:38.710Z,23.63
2022-10-02T19:24:14.302Z,20.13
2022-10-02T19:26:44.562Z,19.23
2022-10-02T19:29:29.962Z,19.08
2022-10-02T19:31:57.840Z,20.05
2022-10-02T19:34:27.782Z,18.67
2022-10-02T19:36:54.989Z,19.60
2022-10-02T19:39:30.474Z,16.95
2022-10-02T19:41:58.890Z,17.45
2022-10-02T19:44:28.240Z,16.20
2022-10-02T19:46:57.620Z,15.32
2022-10-02T19:49:25.829Z,16.70
2022-10-02T19:51:53.268Z,14.07
2022-10-02T19:54:24.539Z,13.38
2022-10-02T19:56:54.268Z,13.10
2022-10-02T19:59:25.252Z,12.20
2022-10-02T20:01:52.937Z,10.55
2022-10-02T20:04:23.547Z,12.45
2022-10-02T20:06:55.058Z,10.65
2022-10-02T20:09:37.878Z,10.23
2022-10-02T20:12:11.843Z,10.25
2022-10-02T20:14:41.317Z,10.85
2022-10-02T20:17:09.770Z,8.77
2022-10-02T20:19:45.193Z,10.15
2022-10-02T20:22:23.933Z,13.88
2022-10-02T20:24:51.687Z,9.48
2022-10-02T20:27:22.138Z,10.07
2022-10-02T20:29:51.043Z,11.57
2022-10-02T20:32:21.263Z,9.05
2022-10-02T20:34:50.521Z,11.30
2022-10-02T20:37:26.197Z,11.60
2022-10-02T20:40:02.365Z,11.73
2022-10-02T20:42:44.557Z,12.90
2022-10-02T20:45:12.204Z,11.05
2022-10-02T20:47:57.328Z,10.90
2022-10-02T20:50:32.787Z,10.52
2022-10-02T20:53:17.700Z,10.73
2022-10-02T20:55:46.939Z,12.02
2022-10-02T20:58:19.229Z,10.30
2022-10-02T21:00:59.893Z,11.15
2022-10-02T21:03:38.566Z,10.73
2022-10-02T21:06:24.364Z,9.98
2022-10-02T21:09:09.663Z,10.27
2022-10-02T21:11:56.060Z,10.70
2022-10-02T21:14:25.527Z,9.43
2022-10-02T21:17:27.627Z,10.65
2022-10-02T21:20:05.794Z,11.02
2022-10-02T21:22:50.851Z,9.75
2022-10-02T21:25:26.342Z,7.85
2022-10-02T21:28:13.461Z,8.85
2022-10-02T21:30:52.011Z,9.20
2022-10-02T21:33:21.989Z,8.15
2022-10-02T21:35:54.313Z,10.60
2022-10-02T21:38:21.028Z,8.07
2022-10-02T21:41:00.250Z,8.88
2022-10-02T21:43:32.718Z,8.10
2022-10-02T21:45:59.558Z,10.98
2022-10-02T21:48:48.988Z,10.60
2022-10-02T21:51:27.791Z,8.93
2022-10-02T21:54:13.064Z,11.18
2022-10-02T21:56:52.372Z,11.60
2022-10-02T21:59:36.975Z,12.52
2022-10-02T22:04:38.226Z,13.43
2022-10-02T22:07:29.771Z,17.60
2022-10-02T22:10:11.015Z,16.27
2022-10-02T22:13:06.950Z,17.42
2022-10-02T22:15:51.857Z,17.25
2022-10-02T22:18:33.960Z,18.25
2022-10-02T22:21:03.719Z,19.70
2022-10-02T22:23:30.182Z,18.38
2022-10-02T22:25:56.817Z,20.52
2022-10-02T22:28:28.005Z,19.17
2022-10-02T22:30:54.563Z,19.52
2022-10-02T22:33:40.648Z,17.80
2022-10-02T22:36:10.204Z,17.45
2022-10-02T22:38:59.651Z,16.65
2022-10-02T22:41:36.091Z,18.02
2022-10-02T22:44:09.456Z,18.60
2022-10-02T22:46:46.981Z,16.48
2022-10-02T22:49:25.315Z,18.30
2022-10-02T22:52:04.958Z,19.05
2022-10-02T22:54:38.083Z,15.57
2022-10-02T22:57:08.433Z,16.17
2022-10-02T22:59:40.898Z,15.65
2022-10-02T23:02:14.410Z,15.20
2022-10-02T23:07:14.339Z,17.77
2022-10-02T23:12:14.960Z,15.55
2022-10-02T23:14:49.613Z,15.55
2022-10-02T23:17:16.056Z,16.75
2022-10-02T23:20:01.438Z,16.90
2022-10-02T23:22:33.748Z,16.98
2022-10-02T23:25:19.033Z,17.92
2022-10-02T23:27:53.332Z,16.92
2022-10-02T23:30:20.597Z,16.98
2022-10-02T23:32:55.978Z,15.80
2022-10-02T23:35:37.434Z,18.60
2022-10-02T23:38:07.758Z,17.08
2022-10-02T23:40:55.097Z,18.05
2022-10-02T23:43:32.838Z,17.35
2022-10-02T23:46:02.418Z,19.92
2022-10-02T23:48:29.738Z,18.35
2022-10-02T23:51:14.765Z,19.42
2022-10-02T23:53:41.294Z,19.25
2022-10-02T23:56:22.684Z,17.15
2022-10-02T23:59:07.590Z,19.10
